createdAt,value
2023-04-28T00:00:06.479Z,2.40
2023-04-28T00:02:54.839Z,3.80
2023-04-28T00:05:23.466Z,2.90
2023-04-28T00:07:52.939Z,2.10
2023-04-28T00:10:21.274Z,2.20
2023-04-28T00:12:50.085Z,2.50
2023-04-28T00:15:18.357Z,2.50
2023-04-28T00:17:46.726Z,2.10
2023-04-28T00:20:15.568Z,2.20
2023-04-28T00:22:43.814Z,2.50
2023-04-28T00:25:12.041Z,2.80
2023-04-28T00:27:40.189Z,3.80
2023-04-28T00:30:09.512Z,2.80
2023-04-28T00:32:37.738Z,2.60
2023-04-28T00:35:07.255Z,2.70
2023-04-28T00:37:39.645Z,2.80
2023-04-28T00:40:08.574Z,1.90
2023-04-28T00:42:37.148Z,2.20
2023-04-28T00:45:07.479Z,2.70
2023-04-28T00:47:37.768Z,2.10
2023-04-28T00:50:06.856Z,2.20
2023-04-28T00:52:38.230Z,2.30
2023-04-28T00:55:09.376Z,2.90
2023-04-28T00:57:37.603Z,2.60
2023-04-28T01:00:06.749Z,2.60
2023-04-28T01:02:36.689Z,2.70
2023-04-28T01:05:05.622Z,2.60
2023-04-28T01:07:35.055Z,3.00
2023-04-28T01:10:04.424Z,2.60
2023-04-28T01:12:33.477Z,2.60
2023-04-28T01:15:02.386Z,3.00
2023-04-28T01:17:31.490Z,2.70
2023-04-28T01:20:01.344Z,3.10
2023-04-28T01:22:29.773Z,3.00
2023-04-28T01:25:00.363Z,2.30
2023-04-28T01:27:30.077Z,3.00
2023-04-28T01:29:58.677Z,3.20
2023-04-28T01:32:27.001Z,2.70
2023-04-28T01:34:55.185Z,2.90
2023-04-28T01:37:24.144Z,3.50
2023-04-28T01:39:52.441Z,2.80
2023-04-28T01:42:20.763Z,2.90
2023-04-28T01:44:49.003Z,2.20
2023-04-28T01:47:17.861Z,2.80
2023-04-28T01:49:48.303Z,2.90
2023-04-28T01:52:16.598Z,2.70
2023-04-28T01:54:44.839Z,2.90
2023-04-28T01:57:13.032Z,3.90
2023-04-28T01:59:42.207Z,3.20
2023-04-28T02:02:12.844Z,3.00
2023-04-28T02:04:41.435Z,3.50
2023-04-28T02:07:10.210Z,3.40
2023-04-28T02:09:38.514Z,2.70
2023-04-28T02:12:06.786Z,2.70
2023-04-28T02:14:35.948Z,3.60
2023-04-28T02:17:05.603Z,3.10
2023-04-28T02:19:35.018Z,3.80
2023-04-28T02:22:03.314Z,3.70
2023-04-28T02:24:35.571Z,4.10
2023-04-28T02:27:05.804Z,3.40
2023-04-28T02:29:34.059Z,3.80
2023-04-28T02:32:03.785Z,4.30
2023-04-28T02:34:32.391Z,3.80
2023-04-28T02:37:00.616Z,3.50
2023-04-28T02:39:30.244Z,3.70
2023-04-28T02:41:58.809Z,3.70
2023-04-28T02:44:27.211Z,4.20
2023-04-28T02:46:55.443Z,3.50
2023-04-28T02:49:26.690Z,3.60
2023-04-28T02:51:54.909Z,3.50
2023-04-28T02:54:31.147Z,3.40
2023-04-28T02:59:27.565Z,3.60
2023-04-28T03:01:56.002Z,2.90
2023-04-28T03:04:24.391Z,4.00
2023-04-28T03:06:53.194Z,3.30
2023-04-28T03:09:21.491Z,2.40
2023-04-28T03:11:49.744Z,4.20
2023-04-28T03:14:18.093Z,3.60
2023-04-28T03:16:46.569Z,2.80
2023-04-28T03:19:15.711Z,4.30
2023-04-28T03:21:44.135Z,3.60
2023-04-28T03:24:14.322Z,3.50
2023-04-28T03:26:43.170Z,3.80
2023-04-28T03:29:11.719Z,3.40
2023-04-28T03:31:40.110Z,4.00
2023-04-28T03:34:08.391Z,4.00
2023-04-28T03:36:37.917Z,4.00
2023-04-28T03:39:11.690Z,2.80
2023-04-28T03:41:39.874Z,3.30
2023-04-28T03:44:27.349Z,3.80
2023-04-28T03:46:55.714Z,3.20
2023-04-28T03:49:24.231Z,3.20
2023-04-28T03:51:53.484Z,2.60
2023-04-28T03:54:21.987Z,2.50
2023-04-28T03:56:50.255Z,3.90
2023-04-28T03:59:18.959Z,2.90
2023-04-28T04:01:47.883Z,2.60
2023-04-28T04:04:16.493Z,3.60
2023-04-28T04:06:45.842Z,3.20
2023-04-28T04:09:14.386Z,2.60
2023-04-28T04:11:42.668Z,2.30
2023-04-28T04:14:11.580Z,2.40
2023-04-28T04:16:39.854Z,2.80
2023-04-28T04:19:08.865Z,2.70
2023-04-28T04:21:42.419Z,3.00
2023-04-28T04:24:10.798Z,2.60
2023-04-28T04:26:39.400Z,3.10
2023-04-28T04:29:22.231Z,3.60
2023-04-28T04:31:50.566Z,3.40
2023-04-28T04:34:18.982Z,3.20
2023-04-28T04:36:47.807Z,3.30
2023-04-28T04:39:16.163Z,2.90
2023-04-28T04:41:44.396Z,3.30
2023-04-28T04:44:32.937Z,2.80
2023-04-28T04:47:02.808Z,3.30
2023-04-28T04:49:32.700Z,3.30
2023-04-28T04:52:01.763Z,3.40
2023-04-28T04:54:30.682Z,3.90
2023-04-28T04:57:00.421Z,3.40
2023-04-28T04:59:51.693Z,3.00
2023-04-28T05:02:20.799Z,3.60
2023-04-28T05:04:49.913Z,3.30
2023-04-28T05:07:18.412Z,3.00
2023-04-28T05:09:46.721Z,3.40
2023-04-28T05:12:14.952Z,4.00
2023-04-28T05:14:44.006Z,3.20
2023-04-28T05:17:12.572Z,3.40
2023-04-28T05:19:42.477Z,3.30
2023-04-28T05:22:11.744Z,3.60
2023-04-28T05:24:40.051Z,3.30
2023-04-28T05:27:08.298Z,3.40
2023-04-28T05:29:36.659Z,3.10
2023-04-28T05:32:05.156Z,4.20
2023-04-28T05:34:34.937Z,2.90
2023-04-28T05:37:03.407Z,2.50
2023-04-28T05:39:34.694Z,3.40
2023-04-28T05:42:04.756Z,3.10
2023-04-28T05:44:33.277Z,2.70
2023-04-28T05:47:01.956Z,2.80
2023-04-28T05:49:30.352Z,2.40
2023-04-28T05:51:58.797Z,2.70
2023-04-28T05:54:27.557Z,3.00
2023-04-28T05:57:00.152Z,3.40
2023-04-28T05:59:31.679Z,2.90
2023-04-28T06:02:00.031Z,2.60
2023-04-28T06:04:28.541Z,2.90
2023-04-28T06:06:57.416Z,3.20
2023-04-28T06:09:26.073Z,2.90
2023-04-28T06:11:54.892Z,3.50
2023-04-28T06:14:23.713Z,3.30
2023-04-28T06:16:52.041Z,3.30
2023-04-28T06:19:20.423Z,3.30
2023-04-28T06:21:51.671Z,2.70
2023-04-28T06:24:21.279Z,2.70
2023-04-28T06:26:51.952Z,3.00
2023-04-28T06:29:21.077Z,2.80
2023-04-28T06:31:50.282Z,2.80
2023-04-28T06:34:20.136Z,3.50
2023-04-28T06:36:48.637Z,3.20
2023-04-28T06:39:16.986Z,2.80
2023-04-28T06:41:45.374Z,2.90
2023-04-28T06:44:14.961Z,4.60
2023-04-28T06:46:43.860Z,2.10
2023-04-28T06:49:12.075Z,2.60
2023-04-28T06:51:40.414Z,2.00
2023-04-28T06:54:08.647Z,3.00
2023-04-28T06:56:36.858Z,2.60
2023-04-28T06:59:05.374Z,2.30
2023-04-28T07:01:33.629Z,2.50
2023-04-28T07:04:02.033Z,2.70
2023-04-28T07:06:31.935Z,3.10
2023-04-28T07:09:00.282Z,2.80
2023-04-28T07:11:28.564Z,2.70
2023-04-28T07:13:56.933Z,2.80
2023-04-28T07:16:26.012Z,1.70
2023-04-28T07:18:56.285Z,2.40
2023-04-28T07:21:24.504Z,2.80
2023-04-28T07:23:52.705Z,2.50
2023-04-28T07:26:21.675Z,3.30
2023-04-28T07:28:49.893Z,2.70
2023-04-28T07:31:18.363Z,2.00
2023-04-28T07:33:46.841Z,2.20
2023-04-28T07:36:15.700Z,1.80
2023-04-28T07:38:44.805Z,1.80
2023-04-28T07:41:14.875Z,1.70
2023-04-28T07:43:43.177Z,2.20
2023-04-28T07:46:13.343Z,2.40
2023-04-28T07:48:43.329Z,1.80
2023-04-28T07:51:12.544Z,1.90
2023-04-28T07:53:40.880Z,2.30
2023-04-28T07:56:09.393Z,1.50
2023-04-28T07:58:38.110Z,1.60
2023-04-28T08:01:07.360Z,1.80
2023-04-28T08:03:35.889Z,1.60
2023-04-28T08:06:04.524Z,1.70
2023-04-28T08:08:33.030Z,1.90
2023-04-28T08:11:19.283Z,1.80
2023-04-28T08:16:36.877Z,1.50
2023-04-28T08:19:05.515Z,1.90
2023-04-28T08:21:51.756Z,1.30
2023-04-28T08:24:37.440Z,1.50
2023-04-28T08:27:05.667Z,1.40
2023-04-28T08:29:34.840Z,1.80
2023-04-28T08:32:03.304Z,1.60
2023-04-28T08:34:31.521Z,1.30
2023-04-28T08:37:02.972Z,1.70
2023-04-28T08:39:34.573Z,1.70
2023-04-28T08:42:07.450Z,1.80
2023-04-28T08:44:40.976Z,1.70
2023-04-28T08:47:14.515Z,1.60
2023-04-28T08:49:45.244Z,1.20
2023-04-28T08:52:17.653Z,1.50
2023-04-28T08:54:49.930Z,1.70
2023-04-28T08:57:20.978Z,1.60
2023-04-28T08:59:51.384Z,1.10
2023-04-28T09:02:20.568Z,1.70
2023-04-28T09:04:52.327Z,1.80
2023-04-28T09:07:20.925Z,1.40
2023-04-28T09:09:49.520Z,1.70
2023-04-28T09:12:18.793Z,1.50
2023-04-28T09:14:58.724Z,1.70
2023-04-28T09:17:27.104Z,1.30
2023-04-28T09:19:55.561Z,1.40
2023-04-28T09:22:28.797Z,2.10
2023-04-28T09:24:57.357Z,2.80
2023-04-28T09:27:28.974Z,1.30
2023-04-28T09:29:58.279Z,1.40
2023-04-28T09:32:28.384Z,1.90
2023-04-28T09:34:57.711Z,1.10
2023-04-28T09:37:27.597Z,2.50
2023-04-28T09:39:56.832Z,1.90
2023-04-28T09:42:47.086Z,1.40
2023-04-28T09:45:17.666Z,1.50
2023-04-28T09:47:48.375Z,1.10
2023-04-28T09:50:18.517Z,2.00
2023-04-28T09:52:57.506Z,1.30
2023-04-28T09:55:28.889Z,1.20
2023-04-28T09:58:01.765Z,1.60
2023-04-28T10:00:31.802Z,1.40
2023-04-28T10:03:01.398Z,2.00
2023-04-28T10:05:31.300Z,1.40
2023-04-28T10:08:03.955Z,1.60
2023-04-28T10:10:33.097Z,1.50
2023-04-28T10:13:03.287Z,1.60
2023-04-28T10:15:33.815Z,1.40
2023-04-28T10:18:04.411Z,1.50
2023-04-28T10:20:34.246Z,1.20
2023-04-28T10:23:40.287Z,1.60
2023-04-28T10:26:13.207Z,1.40
2023-04-28T10:28:49.866Z,1.30
2023-04-28T10:31:23.146Z,1.50
2023-04-28T10:33:54.870Z,1.30
2023-04-28T10:36:51.131Z,1.60
2023-04-28T10:39:22.445Z,1.90
2023-04-28T10:41:51.715Z,2.10
2023-04-28T10:44:29.129Z,1.80
2023-04-28T10:47:07.339Z,1.30
2023-04-28T10:49:54.852Z,1.40
2023-04-28T10:52:38.630Z,1.30
2023-04-28T10:55:38.060Z,1.30
2023-04-28T10:58:31.811Z,1.00
2023-04-28T11:01:19.184Z,1.30
2023-04-28T11:04:01.326Z,1.60
2023-04-28T11:06:54.843Z,2.00
2023-04-28T11:09:32.418Z,1.30
2023-04-28T11:12:00.713Z,1.60
2023-04-28T11:14:30.243Z,1.40
2023-04-28T11:17:01.883Z,1.30
2023-04-28T11:19:33.678Z,1.40
2023-04-28T11:22:17.838Z,2.10
2023-04-28T11:24:59.966Z,1.30
2023-04-28T11:27:30.980Z,1.70
2023-04-28T11:30:00.260Z,1.40
2023-04-28T11:32:32.023Z,1.60
2023-04-28T11:35:00.643Z,1.40
2023-04-28T11:37:29.667Z,1.40
2023-04-28T11:39:57.990Z,1.60
2023-04-28T11:42:28.615Z,1.80
2023-04-28T11:44:57.122Z,1.70
2023-04-28T11:47:33.891Z,1.90
2023-04-28T11:50:03.524Z,2.30
2023-04-28T11:52:32.070Z,1.50
2023-04-28T11:55:02.468Z,1.60
2023-04-28T11:57:31.125Z,1.70
2023-04-28T12:00:14.589Z,1.50
2023-04-28T12:02:44.302Z,2.00
2023-04-28T12:05:13.379Z,1.80
2023-04-28T12:07:44.460Z,1.40
2023-04-28T12:10:17.509Z,1.80
2023-04-28T12:12:52.611Z,1.70
2023-04-28T12:17:52.073Z,1.60
2023-04-28T12:20:39.798Z,2.00
2023-04-28T12:23:08.722Z,1.50
2023-04-28T12:25:50.237Z,1.80
2023-04-28T12:28:18.503Z,1.30
2023-04-28T12:30:47.121Z,1.60
2023-04-28T12:33:27.644Z,2.00
2023-04-28T12:35:59.799Z,1.50
2023-04-28T12:38:28.683Z,2.40
2023-04-28T12:40:57.510Z,1.00
2023-04-28T12:43:27.252Z,1.50
2023-04-28T12:45:57.022Z,1.40
2023-04-28T12:48:25.669Z,1.90
2023-04-28T12:51:00.228Z,1.50
2023-04-28T12:53:28.612Z,1.90
2023-04-28T12:55:57.719Z,1.90
2023-04-28T12:58:28.903Z,1.50
2023-04-28T13:00:57.280Z,1.80
2023-04-28T13:03:26.250Z,1.30
2023-04-28T13:05:55.001Z,1.90
2023-04-28T13:08:23.218Z,1.90
2023-04-28T13:10:51.866Z,1.90
2023-04-28T13:13:20.187Z,1.80
2023-04-28T13:15:48.646Z,1.30
2023-04-28T13:18:16.956Z,2.30
2023-04-28T13:20:46.086Z,1.70
2023-04-28T13:23:17.373Z,1.90
2023-04-28T13:25:47.674Z,1.70
2023-04-28T13:28:15.986Z,1.70
2023-04-28T13:30:44.294Z,1.50
2023-04-28T13:33:12.834Z,1.70
2023-04-28T13:35:41.268Z,2.00
2023-04-28T13:38:09.513Z,2.20
2023-04-28T13:40:39.327Z,1.90
2023-04-28T13:43:08.501Z,1.60
2023-04-28T13:45:37.091Z,1.60
2023-04-28T13:48:05.523Z,1.70
2023-04-28T13:50:36.203Z,1.40
2023-04-28T13:53:05.767Z,2.30
2023-04-28T13:55:34.353Z,1.80
2023-04-28T13:58:05.009Z,2.10
2023-04-28T14:00:35.630Z,1.90
2023-04-28T14:03:04.210Z,1.60
2023-04-28T14:05:42.091Z,1.70
2023-04-28T14:08:20.300Z,1.90
2023-04-28T14:10:50.035Z,1.90
2023-04-28T14:13:19.677Z,1.90
2023-04-28T14:15:58.680Z,1.70
2023-04-28T14:18:28.947Z,2.60
2023-04-28T14:20:57.490Z,2.00
2023-04-28T14:23:26.917Z,1.80
2023-04-28T14:25:56.206Z,2.10
2023-04-28T14:28:24.742Z,2.60
2023-04-28T14:30:58.399Z,2.70
2023-04-28T14:33:27.139Z,1.90
2023-04-28T14:35:55.410Z,2.50
2023-04-28T14:38:23.992Z,3.10
2023-04-28T14:40:52.239Z,2.20
2023-04-28T14:43:21.070Z,2.60
2023-04-28T14:45:49.821Z,2.70
2023-04-28T14:48:18.203Z,2.00
2023-04-28T14:50:46.446Z,2.10
2023-04-28T14:53:15.379Z,2.00
2023-04-28T14:55:43.748Z,2.10
2023-04-28T14:58:12.513Z,2.30
2023-04-28T15:00:42.109Z,2.50
2023-04-28T15:03:11.060Z,1.70
2023-04-28T15:05:40.452Z,1.80
2023-04-28T15:08:09.119Z,2.10
2023-04-28T15:10:40.680Z,2.40
2023-04-28T15:13:09.765Z,1.40
2023-04-28T15:15:38.447Z,2.00
2023-04-28T15:18:06.847Z,2.20
2023-04-28T15:20:37.482Z,2.10
2023-04-28T15:23:06.101Z,2.30
2023-04-28T15:25:34.318Z,2.30
2023-04-28T15:28:04.156Z,2.40
2023-04-28T15:30:32.998Z,2.20
2023-04-28T15:33:01.859Z,2.40
2023-04-28T15:35:32.491Z,2.60
2023-04-28T15:38:02.783Z,2.00
2023-04-28T15:40:31.078Z,2.50
2023-04-28T15:42:59.388Z,2.50
2023-04-28T15:45:27.721Z,2.20
2023-04-28T15:47:56.762Z,1.90
2023-04-28T15:50:25.101Z,3.00
2023-04-28T15:52:53.751Z,2.00
2023-04-28T15:55:23.002Z,2.30
2023-04-28T15:57:52.996Z,2.60
2023-04-28T16:00:21.264Z,2.00
2023-04-28T16:02:49.622Z,2.60
2023-04-28T16:05:18.096Z,1.70
2023-04-28T16:07:48.278Z,2.60
2023-04-28T16:10:16.969Z,2.50
2023-04-28T16:12:45.470Z,2.70
2023-04-28T16:15:14.554Z,2.50
2023-04-28T16:17:44.513Z,2.70
2023-04-28T16:20:15.650Z,2.30
2023-04-28T16:22:44.415Z,3.20
2023-04-28T16:25:12.726Z,2.20
2023-04-28T16:27:42.539Z,2.40
2023-04-28T16:30:11.246Z,2.50
2023-04-28T16:32:40.989Z,3.40
2023-04-28T16:35:15.113Z,2.70
2023-04-28T16:37:44.072Z,3.70
2023-04-28T16:40:13.457Z,3.10
2023-04-28T16:42:43.757Z,2.30
2023-04-28T16:45:13.197Z,2.30
2023-04-28T16:47:44.935Z,3.80
2023-04-28T16:50:17.639Z,3.20
2023-04-28T16:52:46.046Z,3.20
2023-04-28T16:55:14.456Z,2.70
2023-04-28T16:57:43.178Z,2.70
2023-04-28T17:00:12.318Z,2.40
2023-04-28T17:02:42.891Z,3.00
2023-04-28T17:05:11.569Z,2.80
2023-04-28T17:07:39.771Z,2.50
2023-04-28T17:10:08.588Z,2.70
2023-04-28T17:12:37.625Z,2.60
2023-04-28T17:15:09.628Z,2.90
2023-04-28T17:17:37.929Z,2.00
2023-04-28T17:20:07.187Z,2.60
2023-04-28T17:22:35.828Z,2.80
2023-04-28T17:25:04.634Z,2.50
2023-04-28T17:27:35.434Z,3.30
2023-04-28T17:30:04.524Z,2.60
2023-04-28T17:32:33.613Z,3.10
2023-04-28T17:35:02.281Z,3.00
2023-04-28T17:37:33.031Z,3.00
2023-04-28T17:40:02.092Z,2.90
2023-04-28T17:42:31.880Z,2.60
2023-04-28T17:45:00.208Z,3.10
2023-04-28T17:47:28.733Z,2.50
2023-04-28T17:49:57.050Z,2.80
2023-04-28T17:52:25.485Z,2.40
2023-04-28T17:54:56.459Z,3.30
2023-04-28T17:57:25.100Z,2.80
2023-04-28T17:59:53.475Z,2.60
2023-04-28T18:02:21.974Z,2.90
2023-04-28T18:04:51.429Z,3.40
2023-04-28T18:07:20.035Z,3.80
2023-04-28T18:09:48.228Z,3.40
2023-04-28T18:12:17.323Z,6.60
2023-04-28T18:14:45.683Z,5.80
2023-04-28T18:17:14.884Z,4.70
2023-04-28T18:19:43.433Z,4.70
2023-04-28T18:22:11.850Z,2.80
2023-04-28T18:24:40.375Z,3.20
2023-04-28T18:27:09.115Z,4.40
2023-04-28T18:29:37.304Z,3.70
2023-04-28T18:32:06.074Z,3.10
2023-04-28T18:34:34.566Z,3.40
2023-04-28T18:37:02.872Z,3.90
2023-04-28T18:39:31.036Z,2.80
2023-04-28T18:42:02.047Z,3.80
2023-04-28T18:44:31.325Z,2.50
2023-04-28T18:47:00.250Z,2.70
2023-04-28T18:49:32.394Z,2.50
2023-04-28T18:52:03.716Z,2.80
2023-04-28T18:54:35.090Z,3.00
2023-04-28T18:57:05.330Z,1.80
2023-04-28T18:59:33.809Z,2.70
2023-04-28T19:02:03.705Z,2.50
2023-04-28T19:04:32.333Z,2.00
2023-04-28T19:07:00.853Z,2.40
2023-04-28T19:09:29.220Z,2.60
2023-04-28T19:11:59.483Z,2.70
2023-04-28T19:14:30.535Z,2.70
2023-04-28T19:16:59.424Z,3.00
2023-04-28T19:19:28.144Z,2.90
2023-04-28T19:21:59.172Z,2.70
2023-04-28T19:24:29.532Z,2.70
2023-04-28T19:26:58.468Z,2.90
2023-04-28T19:29:26.641Z,3.30
2023-04-28T19:31:55.001Z,3.20
2023-04-28T19:34:23.224Z,2.90
2023-04-28T19:36:51.483Z,3.20
2023-04-28T19:39:21.489Z,2.50
2023-04-28T19:41:50.810Z,3.00
2023-04-28T19:44:19.013Z,4.40
2023-04-28T19:46:47.196Z,3.10
2023-04-28T19:49:18.183Z,2.60
2023-04-28T19:51:46.774Z,3.00
2023-04-28T19:54:16.270Z,3.10
2023-04-28T19:56:45.433Z,3.20
2023-04-28T19:59:14.625Z,3.10
2023-04-28T20:01:44.069Z,3.20
2023-04-28T20:04:13.005Z,2.70
2023-04-28T20:06:42.957Z,3.30
2023-04-28T20:09:11.223Z,3.10
2023-04-28T20:11:40.505Z,3.30
2023-04-28T20:14:09.765Z,3.10
2023-04-28T20:16:38.069Z,3.10
2023-04-28T20:19:06.296Z,2.90
2023-04-28T20:21:37.000Z,2.90
2023-04-28T20:24:07.237Z,2.90
2023-04-28T20:26:36.969Z,2.70
2023-04-28T20:29:08.284Z,3.10
2023-04-28T20:31:36.870Z,3.50
2023-04-28T20:34:05.149Z,3.40
2023-04-28T20:36:33.492Z,3.20
2023-04-28T20:39:02.416Z,3.20
2023-04-28T20:41:31.488Z,3.20
2023-04-28T20:44:01.414Z,2.90
2023-04-28T20:46:30.061Z,3.90
2023-04-28T20:48:58.359Z,3.40
2023-04-28T20:51:26.666Z,3.00
2023-04-28T20:53:54.844Z,3.40
2023-04-28T20:56:23.105Z,3.60
2023-04-28T20:58:51.451Z,3.40
2023-04-28T21:01:19.851Z,3.20
2023-04-28T21:03:48.195Z,3.10
2023-04-28T21:06:17.042Z,3.60
2023-04-28T21:08:45.388Z,3.60
2023-04-28T21:11:15.266Z,3.40
2023-04-28T21:13:45.222Z,3.50
2023-04-28T21:16:20.912Z,3.30
2023-04-28T21:18:50.117Z,3.50
2023-04-28T21:21:18.800Z,4.00
2023-04-28T21:23:47.130Z,3.70
2023-04-28T21:26:15.524Z,3.60
2023-04-28T21:28:44.098Z,3.70
2023-04-28T21:31:12.387Z,4.20
2023-04-28T21:33:43.499Z,3.40
2023-04-28T21:36:12.723Z,3.30
2023-04-28T21:38:41.188Z,3.40
2023-04-28T21:41:15.625Z,3.50
2023-04-28T21:43:45.843Z,4.10
2023-04-28T21:46:14.755Z,4.40
2023-04-28T21:48:42.956Z,3.40
2023-04-28T21:51:11.300Z,3.60
2023-04-28T21:53:39.987Z,3.70
2023-04-28T21:56:08.360Z,3.60
2023-04-28T21:58:36.585Z,3.20
2023-04-28T22:01:05.588Z,3.30
2023-04-28T22:03:36.868Z,3.70
2023-04-28T22:06:05.887Z,3.60
2023-04-28T22:08:34.550Z,3.40
2023-04-28T22:11:02.849Z,3.90
2023-04-28T22:13:31.080Z,4.20
2023-04-28T22:15:59.385Z,3.40
2023-04-28T22:18:28.741Z,3.30
2023-04-28T22:20:56.955Z,3.40
2023-04-28T22:23:25.453Z,3.40
2023-04-28T22:25:53.741Z,3.10
2023-04-28T22:28:22.799Z,3.20
2023-04-28T22:30:51.072Z,3.20
2023-04-28T22:33:19.267Z,3.20
2023-04-28T22:35:47.487Z,2.70
2023-04-28T22:38:15.752Z,4.00
2023-04-28T22:40:49.747Z,3.30
2023-04-28T22:43:17.909Z,3.40
2023-04-28T22:45:46.290Z,3.70
2023-04-28T22:48:14.504Z,3.70
2023-04-28T22:50:43.695Z,3.40
2023-04-28T22:53:11.949Z,3.20
2023-04-28T22:55:40.107Z,3.20
2023-04-28T22:58:09.767Z,3.60
2023-04-28T23:00:38.186Z,3.00
2023-04-28T23:03:06.466Z,3.20
2023-04-28T23:05:38.469Z,3.20
2023-04-28T23:08:06.630Z,3.30
2023-04-28T23:10:34.852Z,3.70
2023-04-28T23:13:03.048Z,3.00
2023-04-28T23:15:31.516Z,3.50
2023-04-28T23:17:59.801Z,3.60
2023-04-28T23:20:28.772Z,3.20
2023-04-28T23:22:58.382Z,3.40
2023-04-28T23:25:27.023Z,3.50
2023-04-28T23:27:55.203Z,3.30
2023-04-28T23:30:23.365Z,3.50
2023-04-28T23:32:51.597Z,3.60
2023-04-28T23:35:19.799Z,3.30
2023-04-28T23:37:48.010Z,3.60
2023-04-28T23:40:16.465Z,3.90
2023-04-28T23:42:44.651Z,3.90
2023-04-28T23:45:13.051Z,3.40
2023-04-28T23:47:42.014Z,3.50
2023-04-28T23:50:10.935Z,3.10
2023-04-28T23:52:40.611Z,3.40
2023-04-28T23:55:10.581Z,3.80
2023-04-28T23:57:40.113Z,3.30
